Time;durP1;ratioP1;P1;durP2;ratioP2;P2;SDS_P1;SDS_P2;PMS_P1;PMS_P2;Temp;Humidity;BMP_temperature;BMP_pressure;BME280_temperature;BME280_humidity;BME280_pressure;Samples;Min_cycle;Max_cycle;Signal;HPM_P1;HPM_P2
2022/04/17 00:00:12;;;;;;;14.30;13.10;;;10.70;59.00;;;;;;5013621;28;20528;-66
2022/04/17 00:02:38;;;;;;;15.50;12.70;;;10.70;58.40;;;;;;5013631;28;20903;-66
2022/04/17 00:05:05;;;;;;;14.23;12.83;;;10.70;59.00;;;;;;5013783;28;20464;-66
2022/04/17 00:07:32;;;;;;;14.90;13.50;;;10.60;59.20;;;;;;5013275;28;21036;-66
2022/04/17 00:09:58;;;;;;;14.13;12.73;;;10.60;59.20;;;;;;5013833;28;20418;-66
2022/04/17 00:12:26;;;;;;;14.27;12.87;;;10.50;59.40;;;;;;5013116;28;20410;-66
2022/04/17 00:14:53;;;;;;;14.20;12.90;;;10.50;60.40;;;;;;5013742;28;20506;-66
2022/04/17 00:17:19;;;;;;;14.30;13.00;;;10.50;61.60;;;;;;5012996;28;20418;-66
2022/04/17 00:19:45;;;;;;;14.83;13.33;;;10.40;62.50;;;;;;5013637;28;20498;-66
2022/04/17 00:22:13;;;;;;;13.57;12.27;;;10.40;63.40;;;;;;5013588;28;20412;-66
2022/04/17 00:24:39;;;;;;;13.67;12.37;;;10.20;63.40;;;;;;5013178;28;20456;-66
2022/04/17 00:27:05;;;;;;;13.90;12.50;;;10.20;64.10;;;;;;5013465;28;20426;-66
2022/04/17 00:29:30;;;;;;;16.77;15.27;;;10.10;64.30;;;;;;5012966;28;20902;-66
2022/04/17 00:31:59;;;;;;;19.50;17.53;;;10.00;65.10;;;;;;4995768;28;20186;-66
2022/04/17 00:34:26;;;;;;;20.70;18.70;;;10.00;65.40;;;;;;5012832;28;20644;-66
2022/04/17 00:36:52;;;;;;;19.23;17.47;;;9.90;67.10;;;;;;5013374;28;20452;-67
2022/04/17 00:39:18;;;;;;;20.50;18.37;;;9.90;67.80;;;;;;5012745;28;20747;-66
2022/04/17 00:41:46;;;;;;;20.20;18.20;;;9.80;67.90;;;;;;5013286;28;20413;-66
2022/04/17 00:44:13;;;;;;;19.43;17.43;;;9.70;68.00;;;;;;5013000;28;20950;-66
2022/04/17 00:46:40;;;;;;;19.83;17.77;;;9.80;69.00;;;;;;5013230;28;20406;-66
2022/04/17 00:49:09;;;;;;;18.00;16.20;;;9.60;68.40;;;;;;5012754;28;20821;-66
2022/04/17 00:51:36;;;;;;;18.53;16.70;;;9.60;68.90;;;;;;5012511;28;20428;-66
2022/04/17 00:54:08;;;;;;;19.83;18.03;;;9.60;69.70;;;;;;5012058;28;20420;-66
2022/04/17 00:56:35;;;;;;;20.17;18.07;;;9.50;70.40;;;;;;5012477;28;20649;-66
2022/04/17 00:59:06;;;;;;;18.10;16.40;;;9.50;70.30;;;;;;5012973;28;20754;-66
2022/04/17 01:01:33;;;;;;;15.93;14.37;;;9.50;70.50;;;;;;5012411;28;20418;-66
2022/04/17 01:04:02;;;;;;;16.43;14.93;;;9.50;70.00;;;;;;5012897;28;20466;-66
2022/04/17 01:06:28;;;;;;;15.07;13.57;;;9.50;69.90;;;;;;5012339;28;20431;-66
2022/04/17 01:08:54;;;;;;;16.17;14.47;;;9.20;70.40;;;;;;5012882;28;20474;-66
2022/04/17 01:11:20;;;;;;;16.00;14.30;;;9.50;71.70;;;;;;5011016;28;20407;-66
2022/04/17 01:13:47;;;;;;;14.10;12.70;;;9.50;72.00;;;;;;5012877;28;20423;-66
2022/04/17 01:16:16;;;;;;;12.73;11.43;;;9.50;72.10;;;;;;5012823;28;20203;-66
2022/04/17 01:19:04;;;;;;;12.83;11.73;;;9.50;71.20;;;;;;5012831;28;20886;-66
2022/04/17 01:21:31;;;;;;;13.07;11.93;;;9.70;69.40;;;;;;5012152;28;20429;-66
2022/04/17 01:26:56;;;;;;;12.13;10.87;;;9.50;70.80;;;;;;5012797;28;20413;-66
2022/04/17 01:29:27;;;;;;;11.57;10.43;;;9.40;70.80;;;;;;5012507;28;20445;-66
2022/04/17 01:31:53;;;;;;;11.37;10.30;;;9.40;71.80;;;;;;5012623;28;20853;-66
2022/04/17 01:34:20;;;;;;;10.93;9.83;;;9.40;71.90;;;;;;5012373;28;20753;-67
2022/04/17 01:36:47;;;;;;;11.20;10.10;;;9.10;70.70;;;;;;5012759;28;20426;-66
2022/04/17 01:39:13;;;;;;;11.33;10.13;;;9.40;71.00;;;;;;5012707;28;20406;-66
2022/04/17 01:41:39;;;;;;;11.40;10.30;;;9.50;71.10;;;;;;5011769;28;20481;-66
2022/04/17 01:44:06;;;;;;;11.77;10.30;;;9.30;71.10;;;;;;5012730;28;20511;-66
2022/04/17 01:46:32;;;;;;;11.17;10.20;;;9.30;71.00;;;;;;5011963;28;20458;-66
2022/04/17 01:48:58;;;;;;;11.37;10.33;;;9.00;70.30;;;;;;5012499;28;20928;-66
2022/04/17 01:51:24;;;;;;;11.70;10.60;;;9.20;70.70;;;;;;5011972;28;20509;-66
2022/04/17 01:53:49;;;;;;;12.43;11.23;;;9.20;70.50;;;;;;5012523;28;20179;-67
2022/04/17 01:56:15;;;;;;;11.30;10.40;;;9.20;70.90;;;;;;5012535;28;20190;-66
2022/04/17 01:58:41;;;;;;;12.30;11.20;;;9.00;71.50;;;;;;5011606;28;20179;-66
2022/04/17 02:01:06;;;;;;;13.57;12.13;;;9.10;72.00;;;;;;5012482;28;20181;-66
2022/04/17 02:03:32;;;;;;;12.97;11.67;;;9.10;72.00;;;;;;5011442;28;20227;-66
2022/04/17 02:06:00;;;;;;;14.87;11.47;;;9.10;72.00;;;;;;5011253;28;20228;-66
2022/04/17 02:08:29;;;;;;;13.10;11.90;;;9.10;72.20;;;;;;4994310;28;20429;-66
2022/04/17 02:10:56;;;;;;;12.03;11.03;;;9.10;72.10;;;;;;5010920;28;20473;-66
2022/04/17 02:13:23;;;;;;;12.80;11.47;;;9.00;72.70;;;;;;5011733;28;20414;-66
2022/04/17 02:15:53;;;;;;;12.57;11.47;;;9.10;72.70;;;;;;5012274;28;20414;-66
2022/04/17 02:18:22;;;;;;;11.30;10.30;;;9.10;72.40;;;;;;5012127;28;20421;-73
2022/04/17 02:20:48;;;;;;;10.80;9.70;;;8.60;72.30;;;;;;5012278;28;20860;-66
2022/04/17 02:23:14;;;;;;;11.87;10.80;;;9.00;72.70;;;;;;5015361;28;20398;-67
2022/04/17 02:25:40;;;;;;;10.70;9.60;;;9.00;72.40;;;;;;5015212;28;20421;-67
2022/04/17 02:28:07;;;;;;;9.87;8.93;;;9.20;72.90;;;;;;5015391;28;20977;-67
2022/04/17 02:30:33;;;;;;;10.60;9.53;;;9.00;73.00;;;;;;5015389;28;20425;-66
2022/04/17 02:32:59;;;;;;;10.30;9.30;;;9.10;73.10;;;;;;5015603;28;20410;-67
2022/04/17 02:35:24;;;;;;;10.77;9.90;;;9.00;72.80;;;;;;5014677;28;20187;-67
2022/04/17 02:37:50;;;;;;;11.70;9.83;;;9.00;72.20;;;;;;5015243;28;20638;-67
2022/04/17 02:40:15;;;;;;;11.50;10.30;;;9.00;72.90;;;;;;5015501;28;20183;-67
2022/04/17 02:42:42;;;;;;;9.80;8.80;;;9.10;72.90;;;;;;5013535;28;20186;-67
2022/04/17 02:45:09;;;;;;;9.90;8.87;;;9.10;72.80;;;;;;5014317;28;20231;-67
2022/04/17 02:47:44;;;;;;;10.53;9.43;;;9.00;73.30;;;;;;5013311;28;20421;-67
2022/04/17 02:50:14;;;;;;;10.00;8.93;;;9.00;73.90;;;;;;5015323;28;20417;-67
2022/04/17 02:52:40;;;;;;;9.13;8.33;;;9.00;74.30;;;;;;5014948;28;20422;-66
2022/04/17 02:55:06;;;;;;;9.73;8.83;;;9.00;74.00;;;;;;5015205;28;20428;-67
2022/04/17 02:57:32;;;;;;;10.13;9.20;;;9.20;73.90;;;;;;5014613;28;20425;-67
2022/04/17 02:59:59;;;;;;;9.67;8.87;;;9.00;73.70;;;;;;5014844;28;20426;-67
2022/04/17 03:07:55;;;;;;;9.03;8.30;;;9.00;72.00;;;;;;5013644;28;20525;-66
2022/04/17 03:10:21;;;;;;;8.37;7.67;;;9.20;72.40;;;;;;5014852;28;20776;-66
2022/04/17 03:12:46;;;;;;;9.30;8.40;;;8.90;71.60;;;;;;5014579;28;20418;-66
2022/04/17 03:15:12;;;;;;;8.23;7.57;;;9.00;71.60;;;;;;5014508;28;20425;-67
2022/04/17 03:17:38;;;;;;;8.80;8.00;;;9.00;72.20;;;;;;5013847;28;20176;-67
2022/04/17 03:20:05;;;;;;;9.30;8.33;;;9.10;73.80;;;;;;5013226;28;20182;-67
2022/04/17 03:22:32;;;;;;;8.87;8.17;;;9.20;73.70;;;;;;5014081;28;20183;-66
2022/04/17 03:25:00;;;;;;;8.60;7.83;;;9.00;72.80;;;;;;5014559;28;20531;-66
2022/04/17 03:27:28;;;;;;;13.63;9.50;;;8.70;73.30;;;;;;5013928;28;20780;-67
2022/04/17 03:29:54;;;;;;;9.53;8.63;;;8.90;73.40;;;;;;5013674;28;20418;-66
2022/04/17 03:32:20;;;;;;;9.80;8.90;;;8.90;73.70;;;;;;5014388;28;20398;-66
2022/04/17 03:34:46;;;;;;;9.97;8.97;;;8.90;73.30;;;;;;5013055;28;20410;-66
2022/04/17 03:37:14;;;;;;;11.03;9.37;;;8.90;73.90;;;;;;5014421;28;20175;-67
2022/04/17 03:39:40;;;;;;;10.00;9.00;;;8.80;74.10;;;;;;5013767;28;20464;-67
2022/04/17 03:42:06;;;;;;;11.10;9.73;;;8.80;73.50;;;;;;5014353;28;20410;-67
2022/04/17 03:44:33;;;;;;;10.47;9.47;;;8.80;75.00;;;;;;5013644;28;21027;-68
2022/04/17 03:46:59;;;;;;;11.13;9.80;;;8.90;75.10;;;;;;5014581;28;20219;-66
2022/04/17 03:49:25;;;;;;;10.83;9.83;;;8.80;75.20;;;;;;5013036;28;20458;-69
2022/04/17 03:51:51;;;;;;;10.43;9.47;;;8.80;74.80;;;;;;5014022;28;20464;-67
2022/04/17 03:54:16;;;;;;;11.10;10.00;;;8.50;74.30;;;;;;5014197;28;20501;-67
2022/04/17 03:56:43;;;;;;;11.40;10.40;;;9.10;75.30;;;;;;5013402;28;20627;-67
2022/04/17 03:59:09;;;;;;;12.17;11.00;;;8.90;76.00;;;;;;5013893;28;20406;-66
2022/04/17 04:01:35;;;;;;;10.83;9.80;;;8.80;76.70;;;;;;5012102;28;20444;-67
2022/04/17 04:04:01;;;;;;;10.60;9.70;;;8.70;76.90;;;;;;5013500;28;20451;-67
2022/04/17 04:06:27;;;;;;;11.43;10.40;;;8.60;76.60;;;;;;5012057;28;20186;-67
2022/04/17 04:08:53;;;;;;;13.23;10.50;;;8.70;77.20;;;;;;5013821;28;20401;-66
2022/04/17 04:11:19;;;;;;;12.43;11.33;;;8.60;77.90;;;;;;5013549;28;20440;-67
2022/04/17 04:13:45;;;;;;;14.17;12.70;;;8.50;78.00;;;;;;5013090;28;20241;-67
2022/04/17 04:16:11;;;;;;;16.10;14.47;;;8.50;79.20;;;;;;5013676;28;20417;-67
2022/04/17 04:18:37;;;;;;;17.57;15.77;;;8.40;79.60;;;;;;5013258;28;20496;-67
2022/04/17 04:21:03;;;;;;;17.87;15.60;;;8.40;79.40;;;;;;5013560;28;20933;-67
2022/04/17 04:23:36;;;;;;;14.50;13.07;;;7.90;78.90;;;;;;5012847;28;20418;-67
2022/04/17 04:26:02;;;;;;;13.53;12.13;;;8.40;80.00;;;;;;5013234;28;20410;-67
2022/04/17 04:28:38;;;;;;;13.57;12.17;;;8.30;80.20;;;;;;5012796;28;20389;-67
2022/04/17 04:31:05;;;;;;;13.10;11.80;;;8.20;80.60;;;;;;5013474;28;20753;-66
2022/04/17 04:33:35;;;;;;;16.97;11.90;;;8.20;81.40;;;;;;5012532;28;21011;-67
2022/04/17 04:36:02;;;;;;;16.80;12.77;;;8.20;81.60;;;;;;5013607;28;20437;-67
2022/04/17 04:38:28;;;;;;;14.00;12.17;;;7.80;81.20;;;;;;5012824;28;20418;-67
2022/04/17 04:40:54;;;;;;;12.47;11.10;;;8.20;81.80;;;;;;5013523;28;20498;-66
2022/04/17 04:43:20;;;;;;;13.47;12.07;;;8.20;82.20;;;;;;5013146;28;20174;-66
2022/04/17 04:51:15;;;;;;;12.90;11.60;;;7.80;82.00;;;;;;5013144;28;20410;-66
2022/04/17 04:53:41;;;;;;;12.10;10.90;;;8.20;82.70;;;;;;5012835;28;20409;-67
2022/04/17 04:56:07;;;;;;;12.13;11.03;;;7.70;82.70;;;;;;5013063;28;20228;-66
2022/04/17 04:58:34;;;;;;;12.93;11.77;;;8.20;83.60;;;;;;5012478;28;20418;-66
2022/04/17 05:01:00;;;;;;;14.90;12.60;;;7.80;83.50;;;;;;5013003;28;20409;-67
2022/04/17 05:03:26;;;;;;;12.23;11.13;;;8.10;83.90;;;;;;5013148;28;20417;-66
2022/04/17 05:05:52;;;;;;;14.43;12.63;;;8.10;83.70;;;;;;5012316;28;20428;-66
2022/04/17 05:08:21;;;;;;;12.93;11.70;;;8.20;83.40;;;;;;5012950;28;20410;-66
2022/04/17 05:10:49;;;;;;;13.67;12.27;;;8.30;83.80;;;;;;5012590;28;20445;-67
2022/04/17 05:13:15;;;;;;;13.30;12.00;;;8.10;83.70;;;;;;5012856;28;20496;-66
2022/04/17 05:15:41;;;;;;;12.80;11.57;;;7.70;83.60;;;;;;5012548;28;20568;-67
2022/04/17 05:18:07;;;;;;;14.30;13.00;;;8.10;83.80;;;;;;5013023;28;20175;-66
2022/04/17 05:20:33;;;;;;;17.10;12.10;;;8.10;84.30;;;;;;5012214;28;20187;-67
2022/04/17 05:23:22;;;;;;;13.63;12.33;;;8.10;85.20;;;;;;5012846;28;20174;-67
2022/04/17 05:25:51;;;;;;;14.80;12.57;;;8.10;85.30;;;;;;5011065;28;20996;-66
2022/04/17 05:28:17;;;;;;;13.20;11.90;;;8.20;85.40;;;;;;5012933;28;20800;-67
2022/04/17 05:30:43;;;;;;;14.90;13.23;;;8.20;86.40;;;;;;5012119;28;20413;-67
2022/04/17 05:33:10;;;;;;;14.83;13.43;;;8.20;87.20;;;;;;5012781;28;20464;-66
2022/04/17 05:35:36;;;;;;;15.97;13.30;;;8.30;87.20;;;;;;5012277;28;20487;-67
2022/04/17 05:38:01;;;;;;;13.67;12.27;;;8.20;87.40;;;;;;5012370;28;20748;-67
2022/04/17 05:40:28;;;;;;;13.90;12.50;;;8.30;87.00;;;;;;5012695;28;20428;-67
2022/04/17 05:42:56;;;;;;;13.70;12.50;;;8.50;88.20;;;;;;5012317;28;20179;-67
2022/04/17 05:45:22;;;;;;;13.70;12.30;;;8.50;88.90;;;;;;5012506;28;20552;-67
2022/04/17 05:47:48;;;;;;;13.80;12.50;;;8.50;89.40;;;;;;5011628;28;20811;-67
2022/04/17 05:50:14;;;;;;;13.80;12.57;;;8.50;89.90;;;;;;5012640;28;20410;-67
2022/04/17 05:52:41;;;;;;;14.77;13.10;;;8.50;89.80;;;;;;5011921;28;20509;-67
2022/04/17 05:55:09;;;;;;;14.30;12.90;;;8.60;90.10;;;;;;5012766;28;20430;-67
2022/04/17 05:57:35;;;;;;;15.17;13.30;;;8.80;90.10;;;;;;5014337;28;20456;-67
2022/04/17 06:00:08;;;;;;;14.83;13.33;;;8.70;90.40;;;;;;5016026;28;20460;-67
2022/04/17 06:02:35;;;;;;;14.53;13.03;;;8.80;90.20;;;;;;5014519;28;20390;-67
2022/04/17 06:05:03;;;;;;;14.37;12.97;;;8.80;89.20;;;;;;5015933;28;20505;-67
2022/04/17 06:07:29;;;;;;;15.70;14.00;;;8.90;89.10;;;;;;5016103;28;20500;-67
2022/04/17 06:10:00;;;;;;;15.63;13.97;;;9.00;89.40;;;;;;5014187;28;20417;-67
2022/04/17 06:12:25;;;;;;;16.73;15.03;;;9.20;89.80;;;;;;5016341;28;20413;-66
2022/04/17 06:14:51;;;;;;;16.80;15.10;;;9.10;89.40;;;;;;5015400;28;20418;-67
2022/04/17 06:17:17;;;;;;;15.17;13.60;;;9.30;88.70;;;;;;5015556;28;20186;-67
2022/04/17 06:19:43;;;;;;;16.03;14.33;;;9.50;88.20;;;;;;5015098;28;20281;-67
2022/04/17 06:22:10;;;;;;;13.13;11.70;;;9.30;88.10;;;;;;5015742;28;20191;-67
2022/04/17 06:24:36;;;;;;;13.23;11.90;;;9.40;88.30;;;;;;5015164;28;20459;-67
2022/04/17 06:27:02;;;;;;;13.93;11.90;;;9.60;87.70;;;;;;5015621;28;20492;-67
2022/04/17 06:29:28;;;;;;;13.73;12.47;;;9.60;86.80;;;;;;5015666;28;20175;-67
2022/04/17 06:31:53;;;;;;;13.50;11.73;;;9.70;86.60;;;;;;5015109;28;20475;-66
2022/04/17 06:34:19;;;;;;;11.23;10.13;;;9.80;86.80;;;;;;5015634;28;20175;-67
2022/04/17 06:36:45;;;;;;;10.60;9.60;;;9.90;85.20;;;;;;5014926;28;20200;-67
2022/04/17 06:39:10;;;;;;;10.00;9.10;;;10.10;83.60;;;;;;5015361;28;20213;-67
2022/04/17 06:41:36;;;;;;;10.03;9.03;;;10.20;83.60;;;;;;5015201;28;20615;-67
2022/04/17 06:44:02;;;;;;;9.13;7.93;;;10.30;82.10;;;;;;5015079;28;20217;-68
2022/04/17 06:46:28;;;;;;;9.10;8.30;;;10.40;81.50;;;;;;5015490;28;20177;-68
2022/04/17 06:48:54;;;;;;;9.07;8.17;;;10.60;81.70;;;;;;5013080;28;20223;-71
2022/04/17 06:51:23;;;;;;;8.47;7.70;;;10.70;91.00;;;;;;5014919;28;20194;-70
2022/04/17 06:53:50;;;;;;;9.37;8.47;;;11.30;94.30;;;;;;5008398;28;20417;-70
2022/04/17 06:56:18;;;;;;;6.83;6.33;;;12.10;91.90;;;;;;5014893;28;20421;-70
2022/04/17 06:58:48;;;;;;;8.80;8.00;;;12.60;77.30;;;;;;5013909;28;20444;-70
2022/04/17 07:01:14;;;;;;;11.63;10.40;;;12.70;73.80;;;;;;5014368;28;20501;-71
2022/04/17 07:03:45;;;;;;;8.40;7.30;;;13.10;78.00;;;;;;5012661;28;20421;-70
2022/04/17 07:06:12;;;;;;;13.37;11.47;;;13.10;65.60;;;;;;5010926;28;20403;-71
2022/04/17 07:08:38;;;;;;;8.80;8.00;;;12.90;69.40;;;;;;5012460;28;20933;-70
2022/04/17 07:11:04;;;;;;;8.43;7.63;;;13.80;75.10;;;;;;5013242;28;20510;-70
2022/04/17 07:13:30;;;;;;;7.03;6.43;;;13.90;68.80;;;;;;5013636;28;20211;-70
2022/04/17 07:15:56;;;;;;;9.47;8.63;;;13.90;65.90;;;;;;5012986;28;20735;-70
2022/04/17 07:18:22;;;;;;;7.00;6.30;;;14.00;67.50;;;;;;5013249;28;20464;-70
2022/04/17 07:20:48;;;;;;;8.50;7.50;;;14.30;72.00;;;;;;5010172;28;20419;-70
2022/04/17 07:23:14;;;;;;;28.47;20.43;;;14.40;65.40;;;;;;5013595;28;20426;-70
2022/04/17 07:25:41;;;;;;;6.00;5.60;;;14.50;69.20;;;;;;5012672;28;20453;-70
2022/04/17 07:28:12;;;;;;;8.77;6.50;;;15.00;64.60;;;;;;5012872;28;20414;-70
2022/04/17 07:30:38;;;;;;;26.60;19.40;;;15.20;64.70;;;;;;5012713;28;20407;-71
2022/04/17 07:33:04;;;;;;;6.13;5.63;;;15.20;66.30;;;;;;5013052;28;20417;-71
2022/04/17 07:35:30;;;;;;;5.60;5.17;;;15.40;60.00;;;;;;5013126;28;20413;-70
2022/04/17 07:38:01;;;;;;;4.77;4.37;;;15.30;59.40;;;;;;5012471;28;20442;-71
2022/04/17 07:40:30;;;;;;;4.50;4.20;;;14.80;55.00;;;;;;5013141;28;20778;-70
2022/04/17 07:43:00;;;;;;;4.53;4.23;;;14.20;54.30;;;;;;5012249;28;20413;-71
2022/04/17 07:45:27;;;;;;;23.43;15.87;;;13.90;55.60;;;;;;5014432;28;20449;-71
2022/04/17 07:47:53;;;;;;;5.93;5.53;;;13.90;64.40;;;;;;5013671;28;20461;-70
2022/04/17 07:50:23;;;;;;;7.03;6.43;;;14.20;58.10;;;;;;5014365;28;20421;-69
2022/04/17 07:52:50;;;;;;;16.17;13.33;;;14.50;62.30;;;;;;5013515;28;20424;-70
2022/04/17 07:55:17;;;;;;;108.93;68.37;;;15.10;64.40;;;;;;5013734;28;20453;-70
2022/04/17 08:00:27;;;;;;;8.20;7.50;;;15.40;59.40;;;;;;5014208;28;20597;-70
2022/04/17 08:03:07;;;;;;;8.77;7.90;;;15.80;59.20;;;;;;5013261;28;20500;-70
2022/04/17 08:05:39;;;;;;;9.40;7.27;;;15.80;57.60;;;;;;5013645;28;20490;-71
2022/04/17 08:08:09;;;;;;;5.30;4.90;;;16.00;57.30;;;;;;5012241;28;20948;-71
2022/04/17 08:10:35;;;;;;;7.90;6.70;;;16.20;55.30;;;;;;5013749;28;20428;-71
2022/04/17 08:13:02;;;;;;;11.43;7.70;;;15.80;53.30;;;;;;5013138;28;20425;-70
2022/04/17 08:15:28;;;;;;;7.90;7.10;;;16.00;56.10;;;;;;5013675;28;20436;-70
2022/04/17 08:17:53;;;;;;;7.20;6.37;;;16.20;55.80;;;;;;5013071;28;20425;-70
2022/04/17 08:20:19;;;;;;;6.87;6.20;;;16.40;55.80;;;;;;5011816;28;20464;-70
2022/04/17 08:22:46;;;;;;;9.13;8.20;;;16.50;54.80;;;;;;5013005;28;20210;-71
2022/04/17 08:25:12;;;;;;;5.03;4.63;;;16.60;53.60;;;;;;5013548;28;20841;-71
2022/04/17 08:27:48;;;;;;;4.13;3.83;;;16.80;52.60;;;;;;5013602;28;20456;-72
2022/04/17 08:30:29;;;;;;;4.77;4.40;;;16.90;53.40;;;;;;5011866;28;20457;-70
2022/04/17 08:32:55;;;;;;;5.50;5.10;;;16.80;53.20;;;;;;5012869;28;20805;-70
2022/04/17 08:35:21;;;;;;;5.47;4.97;;;16.90;54.20;;;;;;5011888;28;20422;-70
2022/04/17 08:37:47;;;;;;;4.50;4.30;;;17.00;53.20;;;;;;5012638;28;20178;-71
2022/04/17 08:40:14;;;;;;;6.10;5.33;;;16.90;53.90;;;;;;5013069;28;20501;-70
2022/04/17 08:42:40;;;;;;;6.03;5.63;;;17.00;55.50;;;;;;5012763;28;20512;-74
2022/04/17 08:45:09;;;;;;;6.40;5.80;;;17.10;52.10;;;;;;5013182;28;20493;-70
2022/04/17 08:47:37;;;;;;;5.07;4.70;;;17.20;53.00;;;;;;5012907;28;20403;-71
2022/04/17 08:50:08;;;;;;;5.70;4.87;;;17.40;52.70;;;;;;5012850;28;20549;-70
2022/04/17 08:52:34;;;;;;;4.83;4.43;;;17.40;53.00;;;;;;5013176;28;20414;-71
2022/04/17 08:55:01;;;;;;;3.03;2.80;;;17.50;51.30;;;;;;5012494;28;20867;-70
2022/04/17 08:57:27;;;;;;;3.00;2.80;;;17.50;50.30;;;;;;5013092;28;20415;-71
2022/04/17 08:59:53;;;;;;;181.82;149.27;;;17.10;47.90;;;;;;5011250;28;20418;-69
2022/04/17 09:02:19;;;;;;;45.40;37.60;;;17.30;56.00;;;;;;5011084;28;20494;-70
2022/04/17 09:04:46;;;;;;;7.60;6.50;;;17.70;53.70;;;;;;5012331;28;20306;-70
2022/04/17 09:07:13;;;;;;;9.33;8.43;;;17.80;54.10;;;;;;5012906;28;20171;-71
2022/04/17 09:09:40;;;;;;;9.67;7.40;;;17.90;53.60;;;;;;5012928;28;20418;-70
2022/04/17 09:12:06;;;;;;;9.50;8.70;;;18.10;56.00;;;;;;5012609;28;20501;-70
2022/04/17 09:14:38;;;;;;;6.47;5.87;;;18.20;53.20;;;;;;5012797;28;20468;-70
2022/04/17 09:17:09;;;;;;;7.30;6.50;;;18.30;54.30;;;;;;5012106;28;20402;-70
2022/04/17 09:19:35;;;;;;;7.13;6.53;;;18.50;52.60;;;;;;5012851;28;20848;-70
2022/04/17 09:22:01;;;;;;;5.50;5.10;;;18.50;53.70;;;;;;5010851;28;20512;-70
2022/04/17 09:24:27;;;;;;;4.90;4.60;;;18.60;52.80;;;;;;5012669;28;20211;-70
2022/04/17 09:26:55;;;;;;;11.10;10.00;;;18.70;52.40;;;;;;5011795;28;20429;-70
2022/04/17 09:29:24;;;;;;;4.63;4.33;;;18.80;53.90;;;;;;5012292;28;20236;-70
2022/04/17 09:32:04;;;;;;;293.63;209.93;;;18.90;51.60;;;;;;5013417;28;20425;-69
2022/04/17 09:34:55;;;;;;;84.00;60.70;;;19.10;53.90;;;;;;5016828;28;20420;-69
2022/04/17 09:37:29;;;;;;;8.47;7.63;;;19.30;54.60;;;;;;5016739;28;20414;-70
2022/04/17 09:40:06;;;;;;;19.70;17.60;;;19.60;55.80;;;;;;5015723;28;20447;-70
2022/04/17 09:42:32;;;;;;;11.47;10.27;;;19.60;58.20;;;;;;5016846;28;20461;-70
2022/04/17 09:44:58;;;;;;;4.60;4.30;;;19.70;55.10;;;;;;5015788;28;20473;-70
2022/04/17 09:47:26;;;;;;;3.83;3.63;;;19.80;46.00;;;;;;5016429;28;20611;-69
2022/04/17 09:49:58;;;;;;;3.80;3.60;;;19.40;40.40;;;;;;5015262;28;20314;-70
2022/04/17 09:52:32;;;;;;;7.30;6.70;;;19.30;44.00;;;;;;5016650;28;20406;-69
2022/04/17 09:54:59;;;;;;;14.40;12.13;;;19.20;49.80;;;;;;5015938;28;20402;-70
2022/04/17 09:57:29;;;;;;;11.97;10.77;;;19.50;54.10;;;;;;5016404;28;20418;-70
2022/04/17 10:00:11;;;;;;;4.37;4.17;;;19.70;53.40;;;;;;5015586;28;20414;-69
2022/04/17 10:02:38;;;;;;;10.30;9.40;;;19.70;46.60;;;;;;5016283;28;20870;-70
2022/04/17 10:05:06;;;;;;;15.57;11.60;;;19.90;50.00;;;;;;5015436;28;20519;-70
2022/04/17 10:07:32;;;;;;;9.07;8.30;;;20.10;52.30;;;;;;5016037;28;20422;-70
2022/04/17 10:09:57;;;;;;;7.23;6.47;;;20.20;51.00;;;;;;5015397;28;20939;-70
2022/04/17 10:12:25;;;;;;;13.07;11.80;;;20.30;48.80;;;;;;5016226;28;20297;-70
2022/04/17 10:14:52;;;;;;;3.93;3.73;;;20.40;50.50;;;;;;5015325;28;20175;-70
2022/04/17 10:17:22;;;;;;;12.50;11.37;;;20.50;46.20;;;;;;5015820;28;20505;-70
2022/04/17 10:19:51;;;;;;;4.10;3.90;;;20.60;50.10;;;;;;5015306;28;20460;-70
2022/04/17 10:22:20;;;;;;;10.50;9.60;;;20.60;45.80;;;;;;5015829;28;20410;-70
2022/04/17 10:24:52;;;;;;;10.30;9.40;;;20.60;45.70;;;;;;5014836;28;20457;-74
2022/04/17 10:27:24;;;;;;;8.63;7.93;;;20.40;49.20;;;;;;5016124;28;20497;-69
2022/04/17 10:29:56;;;;;;;9.33;8.43;;;20.30;48.70;;;;;;5014971;28;20430;-70
2022/04/17 10:33:03;;;;;;;36.10;30.13;;;20.30;48.90;;;;;;5014921;28;20406;-70
2022/04/17 10:35:56;;;;;;;6.47;5.97;;;20.40;42.90;;;;;;4995961;28;20438;-70
2022/04/17 10:38:26;;;;;;;4.07;3.90;;;20.60;44.50;;;;;;5015765;28;20205;-70
2022/04/17 10:41:02;;;;;;;4.13;3.93;;;20.60;44.20;;;;;;5013454;28;20544;-70
2022/04/17 10:43:57;;;;;;;4.80;4.50;;;20.60;41.80;;;;;;5015040;28;20409;-70
2022/04/17 10:46:24;;;;;;;5.13;4.63;;;20.70;44.40;;;;;;5015303;28;20855;-71
2022/04/17 10:48:58;;;;;;;3.57;3.37;;;20.20;44.70;;;;;;5014584;28;20461;-70
2022/04/17 10:51:32;;;;;;;3.30;3.20;;;20.10;40.00;;;;;;5015408;28;20441;-70
2022/04/17 10:54:10;;;;;;;3.80;3.60;;;20.00;38.00;;;;;;5014735;28;20502;-70
2022/04/17 10:56:41;;;;;;;3.30;3.10;;;19.80;37.60;;;;;;5015666;28;20422;-69
2022/04/17 10:59:17;;;;;;;4.40;4.10;;;19.90;42.80;;;;;;5014325;28;20873;-70
2022/04/17 11:01:43;;;;;;;4.23;4.03;;;20.20;45.30;;;;;;5015035;28;20410;-70
2022/04/17 11:04:15;;;;;;;4.20;3.97;;;20.30;45.50;;;;;;5014596;28;20512;-70
2022/04/17 11:06:42;;;;;;;4.70;4.30;;;20.30;44.80;;;;;;5015050;28;20638;-70
2022/04/17 11:09:23;;;;;;;4.10;3.90;;;20.40;46.40;;;;;;5013291;28;20407;-70
2022/04/17 11:11:49;;;;;;;4.00;3.90;;;20.60;47.80;;;;;;5014570;28;20414;-75
2022/04/17 11:14:19;;;;;;;4.53;4.33;;;20.80;40.40;;;;;;5014867;28;20414;-70
2022/04/17 11:16:56;;;;;;;3.80;3.60;;;21.10;42.50;;;;;;5015206;28;20422;-70
2022/04/17 11:19:28;;;;;;;4.77;4.40;;;21.30;39.30;;;;;;5014422;28;20434;-70
2022/04/17 11:21:56;;;;;;;4.10;3.90;;;21.40;46.30;;;;;;5014197;28;20814;-70
2022/04/17 11:24:22;;;;;;;3.90;3.37;;;21.50;45.90;;;;;;5014604;28;20816;-70
2022/04/17 11:26:54;;;;;;;4.50;4.30;;;21.60;47.70;;;;;;5029792;28;20770;-70
2022/04/17 11:29:47;;;;;;;3.50;3.30;;;21.70;45.80;;;;;;5014312;28;20910;-70
2022/04/17 11:32:34;;;;;;;4.30;4.00;;;21.80;40.60;;;;;;5007440;28;20513;-70
2022/04/17 11:35:04;;;;;;;3.50;3.30;;;21.80;45.20;;;;;;5003221;28;20773;-70
2022/04/17 11:37:31;;;;;;;4.60;4.30;;;21.70;44.90;;;;;;5014177;28;20758;-70
2022/04/17 11:39:58;;;;;;;4.07;3.97;;;21.00;46.30;;;;;;5013573;28;20937;-70
2022/04/17 11:42:46;;;;;;;3.90;3.70;;;21.00;44.10;;;;;;5013980;28;20426;-71
2022/04/17 11:45:16;;;;;;;4.83;4.50;;;20.70;45.30;;;;;;5011107;28;20454;-70
2022/04/17 11:47:43;;;;;;;20.83;18.63;;;20.60;45.50;;;;;;5013497;28;20421;-70
2022/04/17 11:50:20;;;;;;;112.27;95.60;;;20.50;45.60;;;;;;5013332;28;20410;-69
2022/04/17 11:52:51;;;;;;;5.57;5.27;;;20.30;45.90;;;;;;5014222;28;20434;-70
2022/04/17 11:55:42;;;;;;;7.07;6.47;;;20.50;46.00;;;;;;5013002;28;20401;-70
2022/04/17 11:58:13;;;;;;;6.17;5.70;;;20.60;44.60;;;;;;5012844;28;20509;-69
2022/04/17 12:00:40;;;;;;;4.77;4.50;;;20.40;45.80;;;;;;5014029;28;20477;-70
2022/04/17 12:03:07;;;;;;;4.60;4.23;;;20.30;45.90;;;;;;5013342;28;20418;-70
2022/04/17 12:05:35;;;;;;;4.60;4.30;;;20.40;45.60;;;;;;5013900;28;20449;-70
2022/04/17 12:08:09;;;;;;;4.30;4.10;;;20.50;45.40;;;;;;5013310;28;20418;-70
2022/04/17 12:10:37;;;;;;;4.63;4.30;;;20.40;45.10;;;;;;5013727;28;20914;-70
2022/04/17 12:13:17;;;;;;;4.73;4.37;;;20.20;45.10;;;;;;5012876;28;20417;-70
2022/04/17 12:15:43;;;;;;;4.27;4.07;;;20.00;45.50;;;;;;5013743;28;20414;-70
2022/04/17 12:18:09;;;;;;;4.83;4.60;;;19.90;45.70;;;;;;5012845;28;20410;-70
2022/04/17 12:20:35;;;;;;;5.37;5.03;;;19.80;45.30;;;;;;4995992;28;20421;-69
2022/04/17 12:23:00;;;;;;;5.10;4.70;;;19.90;47.60;;;;;;5011515;28;20175;-70
2022/04/17 12:25:26;;;;;;;6.13;5.47;;;20.00;47.80;;;;;;5012132;28;20206;-70
2022/04/17 12:27:54;;;;;;;5.90;5.30;;;19.80;47.10;;;;;;5013816;28;20621;-69
2022/04/17 12:30:20;;;;;;;5.77;5.27;;;19.80;47.20;;;;;;5012360;28;20485;-70
2022/04/17 12:32:47;;;;;;;5.07;4.77;;;19.90;47.00;;;;;;5013416;28;20430;-70
2022/04/17 12:35:21;;;;;;;5.33;4.93;;;19.60;46.90;;;;;;5012806;28;20800;-70
2022/04/17 12:37:47;;;;;;;5.50;4.97;;;19.50;46.70;;;;;;5013466;28;20517;-70
2022/04/17 12:40:18;;;;;;;5.73;5.30;;;19.40;46.80;;;;;;5012477;28;20817;-70
2022/04/17 12:42:45;;;;;;;4.90;4.60;;;19.30;47.10;;;;;;5013583;28;20178;-70
2022/04/17 12:45:25;;;;;;;5.70;5.10;;;19.10;46.80;;;;;;5012595;28;20477;-70
2022/04/17 12:48:05;;;;;;;5.60;5.20;;;19.10;47.10;;;;;;5012612;28;20983;-69
2022/04/17 12:50:31;;;;;;;6.03;5.63;;;19.10;47.70;;;;;;5012959;28;20821;-70
2022/04/17 12:52:58;;;;;;;6.73;5.50;;;19.30;47.50;;;;;;5012842;28;20418;-70
2022/04/17 12:55:34;;;;;;;6.77;6.00;;;19.20;47.50;;;;;;5013218;28;20421;-69
2022/04/17 12:58:04;;;;;;;6.93;6.43;;;19.50;47.40;;;;;;5012603;28;20540;-71
2022/04/17 13:00:30;;;;;;;5.97;5.47;;;19.70;46.90;;;;;;5013341;28;20830;-70
2022/04/17 13:03:13;;;;;;;6.47;5.97;;;19.90;46.50;;;;;;5013043;28;20801;-71